createdAt,value
2022-10-05T00:04:25.209Z,0
2022-10-05T00:09:25.234Z,0
2022-10-05T00:14:25.227Z,0
2022-10-05T00:29:27.493Z,0
2022-10-05T00:34:25.956Z,0
2022-10-05T00:39:25.700Z,0
2022-10-05T00:44:26.161Z,0
2022-10-05T00:49:25.247Z,0
2022-10-05T00:54:25.264Z,0
2022-10-05T00:59:28.674Z,0
2022-10-05T01:04:25.271Z,0
2022-10-05T01:09:25.275Z,0
2022-10-05T01:14:25.322Z,0
2022-10-05T01:19:25.241Z,0
2022-10-05T01:24:25.256Z,0
2022-10-05T01:29:25.281Z,0
2022-10-05T01:34:25.264Z,0
2022-10-05T01:39:25.226Z,0
2022-10-05T01:44:25.320Z,0
2022-10-05T01:49:25.307Z,0
2022-10-05T01:54:25.262Z,0
2022-10-05T01:59:28.275Z,0
2022-10-05T02:04:56.851Z,0
2022-10-05T02:09:25.483Z,0
2022-10-05T02:14:25.263Z,0
2022-10-05T02:19:25.293Z,0
2022-10-05T02:24:25.275Z,0
2022-10-05T02:29:25.265Z,0
2022-10-05T02:34:25.243Z,0
2022-10-05T02:39:25.271Z,0
2022-10-05T02:44:25.255Z,0
2022-10-05T02:49:25.245Z,0
2022-10-05T02:54:25.259Z,0
2022-10-05T02:59:28.377Z,0
2022-10-05T03:04:25.307Z,0
2022-10-05T03:09:25.292Z,0
2022-10-05T03:14:25.257Z,0
2022-10-05T03:19:25.274Z,0
2022-10-05T03:24:25.224Z,0
2022-10-05T03:29:25.266Z,0
2022-10-05T03:34:25.275Z,0
2022-10-05T03:39:25.274Z,0
2022-10-05T03:44:28.154Z,0
2022-10-05T03:49:25.298Z,0
2022-10-05T03:54:25.247Z,0
2022-10-05T03:59:32.345Z,0
2022-10-05T04:04:25.257Z,0
2022-10-05T04:09:25.272Z,0
2022-10-05T04:14:25.589Z,0
2022-10-05T04:19:25.243Z,0
2022-10-05T04:24:25.264Z,0
2022-10-05T04:29:25.269Z,0
2022-10-05T04:34:25.274Z,0
2022-10-05T04:39:25.356Z,0
2022-10-05T04:44:25.271Z,0
2022-10-05T04:49:25.253Z,0
2022-10-05T04:54:25.308Z,0
2022-10-05T04:59:29.009Z,0
2022-10-05T05:04:25.314Z,0
2022-10-05T05:09:25.295Z,260
2022-10-05T05:14:25.341Z,259
2022-10-05T05:19:25.265Z,265
2022-10-05T05:24:25.367Z,268
2022-10-05T05:29:25.384Z,279
2022-10-05T05:34:25.296Z,294
2022-10-05T05:39:25.315Z,304
2022-10-05T05:44:25.331Z,323
2022-10-05T05:49:25.304Z,326
2022-10-05T05:54:25.272Z,344
2022-10-05T05:59:25.339Z,371
2022-10-05T06:04:25.305Z,378
2022-10-05T06:09:25.401Z,385
2022-10-05T06:14:25.300Z,426
2022-10-05T06:19:25.297Z,456
2022-10-05T06:24:25.394Z,469
2022-10-05T06:29:25.302Z,473
2022-10-05T06:34:25.867Z,486
2022-10-05T06:39:25.301Z,504
2022-10-05T06:44:25.307Z,557
2022-10-05T06:49:25.246Z,586
2022-10-05T06:54:25.293Z,675
2022-10-05T06:59:28.802Z,663
2022-10-05T07:04:25.259Z,793
2022-10-05T07:09:25.246Z,860
2022-10-05T07:14:25.340Z,816
2022-10-05T07:19:25.319Z,922
2022-10-05T07:24:25.266Z,1142
2022-10-05T07:29:25.266Z,1018
2022-10-05T07:34:25.347Z,1122
2022-10-05T07:39:32.400Z,1655
2022-10-05T07:44:25.341Z,7491
2022-10-05T07:49:25.272Z,8363
2022-10-05T07:54:25.319Z,9934
2022-10-05T07:59:28.062Z,9042
2022-10-05T08:04:25.286Z,7841
2022-10-05T08:09:25.329Z,10435
2022-10-05T08:14:25.290Z,11346
2022-10-05T08:19:25.285Z,11393
2022-10-05T08:24:25.304Z,9659
2022-10-05T08:29:25.321Z,10432
2022-10-05T08:34:25.311Z,9689
2022-10-05T08:39:25.289Z,9224
2022-10-05T08:44:25.354Z,11775
2022-10-05T08:49:25.367Z,12229
2022-10-05T08:54:25.309Z,12235
2022-10-05T08:59:28.466Z,10822
2022-10-05T09:04:25.337Z,12681
2022-10-05T09:09:25.319Z,12390
2022-10-05T09:14:25.335Z,11658
2022-10-05T09:19:25.310Z,11247
2022-10-05T09:24:25.281Z,8859
2022-10-05T09:29:25.314Z,4017
2022-10-05T09:34:25.360Z,6108
2022-10-05T09:39:25.304Z,3022
2022-10-05T09:44:25.327Z,4988
2022-10-05T09:49:25.289Z,4444
2022-10-05T09:54:25.298Z,6113
2022-10-05T09:59:25.381Z,6793
2022-10-05T10:04:25.610Z,3282
2022-10-05T10:09:25.342Z,4673
2022-10-05T10:14:25.289Z,2469
2022-10-05T10:19:25.422Z,3625
2022-10-05T10:24:25.310Z,2317
2022-10-05T10:34:25.342Z,2147
2022-10-05T10:39:25.327Z,1690
2022-10-05T10:44:25.278Z,1591
2022-10-05T10:49:25.358Z,1554
2022-10-05T10:54:25.386Z,1538
2022-10-05T11:04:25.355Z,1463
2022-10-05T11:09:25.359Z,1433
2022-10-05T11:14:25.355Z,1410
2022-10-05T11:19:30.886Z,1410
2022-10-05T11:24:25.331Z,1395
2022-10-05T11:29:25.349Z,1473
2022-10-05T11:34:25.461Z,1366
2022-10-05T11:39:25.339Z,1320
2022-10-05T11:44:25.366Z,1353
2022-10-05T11:49:25.320Z,1316
2022-10-05T11:54:25.391Z,1265
2022-10-05T11:59:28.617Z,1246
2022-10-05T12:04:25.370Z,1212
2022-10-05T12:09:25.378Z,1215
2022-10-05T12:14:25.342Z,1242
2022-10-05T12:19:25.378Z,1241
2022-10-05T12:24:26.926Z,1398
2022-10-05T12:29:25.334Z,1173
2022-10-05T12:34:25.374Z,1154
2022-10-05T12:39:25.358Z,1126
2022-10-05T12:44:25.337Z,1089
2022-10-05T12:49:25.340Z,1149
2022-10-05T12:54:25.342Z,1064
2022-10-05T12:59:26.590Z,1040
2022-10-05T13:04:25.360Z,1024
2022-10-05T13:09:25.405Z,1010
2022-10-05T13:14:25.334Z,1000
2022-10-05T13:19:25.344Z,969
2022-10-05T13:24:25.334Z,960
2022-10-05T13:29:25.343Z,954
2022-10-05T13:34:25.515Z,946
2022-10-05T13:39:25.386Z,954
2022-10-05T13:44:25.349Z,943
2022-10-05T13:49:25.340Z,933
2022-10-05T13:54:25.325Z,916
2022-10-05T13:59:27.264Z,895
2022-10-05T14:04:25.386Z,881
2022-10-05T14:09:25.361Z,866
2022-10-05T14:14:25.411Z,826
2022-10-05T14:19:25.457Z,799
2022-10-05T14:24:42.982Z,765
2022-10-05T14:29:25.417Z,737
2022-10-05T14:34:25.397Z,721
2022-10-05T14:39:25.368Z,728
2022-10-05T14:44:25.412Z,718
2022-10-05T14:49:25.447Z,666
2022-10-05T14:54:25.365Z,647
2022-10-05T14:59:28.532Z,618
2022-10-05T15:04:25.398Z,601
2022-10-05T15:09:25.354Z,583
2022-10-05T15:14:25.470Z,570
2022-10-05T15:19:25.365Z,553
2022-10-05T15:24:25.366Z,531
2022-10-05T15:29:25.396Z,507
2022-10-05T15:34:28.816Z,480
2022-10-05T15:39:25.448Z,461
2022-10-05T15:44:25.445Z,444
2022-10-05T15:49:30.010Z,424
2022-10-05T15:54:25.389Z,406
2022-10-05T16:04:25.403Z,370
2022-10-05T16:09:25.380Z,355
2022-10-05T16:14:25.443Z,339
2022-10-05T16:19:25.451Z,326
2022-10-05T16:24:25.380Z,308
2022-10-05T16:29:25.441Z,291
2022-10-05T16:34:25.428Z,280
2022-10-05T16:39:25.431Z,271
2022-10-05T16:44:25.447Z,268
2022-10-05T16:49:25.532Z,274
2022-10-05T16:54:25.424Z,271
2022-10-05T16:59:33.327Z,264
2022-10-05T17:04:29.120Z,0
2022-10-05T17:09:25.494Z,0
2022-10-05T17:14:25.429Z,0
2022-10-05T17:19:25.436Z,0
2022-10-05T17:24:25.482Z,0
2022-10-05T17:29:25.393Z,0
2022-10-05T17:34:25.410Z,0
2022-10-05T17:39:25.409Z,0
2022-10-05T17:44:25.442Z,0
2022-10-05T17:49:25.520Z,0
2022-10-05T17:54:25.489Z,0
2022-10-05T17:59:25.639Z,0
2022-10-05T18:04:25.432Z,0
2022-10-05T18:09:25.384Z,0
2022-10-05T18:14:25.402Z,0
2022-10-05T18:19:25.487Z,0
2022-10-05T18:24:25.452Z,0
2022-10-05T18:29:25.463Z,0
2022-10-05T18:34:25.449Z,0
2022-10-05T18:39:25.438Z,0
2022-10-05T18:44:25.514Z,0
2022-10-05T18:49:25.490Z,0
2022-10-05T18:54:25.527Z,0
2022-10-05T18:59:25.643Z,0
2022-10-05T19:04:25.487Z,0
2022-10-05T19:09:25.471Z,0
2022-10-05T19:14:25.492Z,0
2022-10-05T19:19:29.623Z,0
2022-10-05T19:24:25.470Z,0
2022-10-05T19:29:25.460Z,0
2022-10-05T19:34:25.548Z,0
2022-10-05T19:39:25.523Z,0
2022-10-05T19:44:25.524Z,0
2022-10-05T19:49:25.628Z,0
2022-10-05T19:54:25.482Z,0
2022-10-05T19:59:26.092Z,0
2022-10-05T20:04:25.516Z,0
2022-10-05T20:09:25.597Z,0
2022-10-05T20:14:25.570Z,0
2022-10-05T20:19:25.513Z,0
2022-10-05T20:24:25.605Z,0
2022-10-05T20:29:25.698Z,0
2022-10-05T20:34:25.597Z,0
2022-10-05T20:39:25.468Z,0
2022-10-05T20:44:25.499Z,0
2022-10-05T20:49:25.542Z,0
2022-10-05T20:54:25.508Z,0
2022-10-05T20:59:25.569Z,0
2022-10-05T21:04:25.582Z,0
2022-10-05T21:09:25.519Z,0
2022-10-05T21:14:25.576Z,0
2022-10-05T21:19:25.586Z,0
2022-10-05T21:24:25.485Z,0
2022-10-05T21:29:25.469Z,0
2022-10-05T21:34:25.517Z,0
2022-10-05T21:39:25.481Z,0
2022-10-05T21:44:25.559Z,0
2022-10-05T21:49:25.437Z,0
2022-10-05T21:54:25.474Z,0
2022-10-05T21:59:25.507Z,0
2022-10-05T22:04:25.541Z,0
2022-10-05T22:09:25.440Z,0
2022-10-05T22:14:29.263Z,0
2022-10-05T22:19:27.468Z,0
2022-10-05T22:24:25.488Z,0
2022-10-05T22:29:25.527Z,0
2022-10-05T22:34:28.137Z,0
2022-10-05T22:39:25.500Z,0
2022-10-05T22:44:25.501Z,0
2022-10-05T22:49:25.498Z,0
2022-10-05T22:54:29.412Z,0
2022-10-05T22:59:25.484Z,0
2022-10-05T23:04:31.019Z,0
2022-10-05T23:09:25.545Z,0
2022-10-05T23:14:25.498Z,0
2022-10-05T23:19:25.525Z,0
2022-10-05T23:24:25.499Z,0
2022-10-05T23:29:25.486Z,0
2022-10-05T23:34:25.584Z,0
2022-10-05T23:39:25.529Z,0
2022-10-05T23:44:25.468Z,0
2022-10-05T23:49:25.478Z,0
2022-10-05T23:54:25.486Z,0
2022-10-05T23:59:25.542Z,0
